Alder, Montana
Current Conditions -  °F | °C
As of 4:53 AM on Tuesday 27 Jan 2015 (Local Time) from KDLN Reporting Station
Clear Clear  
Wind Chill: 27°   Ceiling: Unl
Heat Index: 36°   Visibility: 10mi
Dew Point: 26°   Wind: 14mph
Humidity: 67%   Direction: 200°SSW
Pressure: 30.06"   Gusts: NA
Location:  45.32°N, 112.11°W
Report Text: KDLN 271153Z AUTO 20012KT 10SM CLR 02/M03 A3006 RMK AO2 SLP174 T00221033 10044 20011 58011
Loading
Personal Weather Stations






























Interactive Weather Map New forecast layout! Learn more

10-Day Weather Forecast

Advertisements
Track Severe Weather on mobile